Tiempo atmosférico en la estación meteorológica de Tenerife Norte Aeropuerto, Santa Cruz de Tenerife (632 m.)



Fecha
DESCASC
Temp. máxima en grados centígrados (hora)
DESCASC
Temp. mínima en grados centígrados (hora)
DESCASC
Temp. media en grados centígrados
DESCASC
Racha de viento máxima en m/sg (hora)
DESCASC
Velocidad máxima media en intervalos de 10 minutos(hora)
DESCASC
Precipitaciones diarias en mm
DESCASC
Precipitaciones de 00:00 a 06:00 en mm
DESCASC
Precipitaciones de 06:00 a 12:00 en mm
DESCASC
Precipitaciones de 12:00 a 18:00 en mm
DESCASC
Precipitaciones de 18:00 a 24:00 en mm
DESCASC
08-12-2019 17.1 (12:50) 11.8 (07:50) 14.5 9.17 (22:40) 4.72 (12:10) 0 0 0 0 0
07-12-2019 17 (15:30) 11.8 (06:30) 14.4 11.67 (02:40) 7.78 (02:40) 0.8 0.4 0.4 0 0
06-12-2019 15.5 (12:50) 12.5 (02:30) 14 18.89 (00:30) 11.39 (00:10) 0.9 0.5 0 0.4 0
05-12-2019 14.4 (14:50) 10.9 (00:00) 12.6 21.11 (08:50) 14.17 (03:10) 30.7 7.5 6.7 8.3 8.2
04-12-2019 17.2 (13:20) 12.2 (06:40) 14.7 15.28 (16:20) 11.11 (18:50) 4 0 0 0 4
03-12-2019 16.2 (13:10) 11.9 (00:00) 14.1 15 (11:00) 9.72 (00:40) 7.3 4.1 2.9 0 0.3
02-12-2019 17.7 (12:40) 12.3 (00:00) 15 16.94 (02:20) 12.22 (07:20) 0.3 0.2 0 0 0.1
01-12-2019 19.7 (10:10) 11.2 (00:00) 15.5 11.39 (23:59) 7.78 (22:50) 0 0 0 0 0
30-11-2019 23.5 (11:40) 13.4 (00:00) 18.4 7.22 (12:00) 5.28 (12:40) 0 0 0 0 0
29-11-2019 21.4 (13:10) 15.8 (00:00) 18.6 8.33 (07:00) 5.28 (13:30) 0 0 0 0 0
28-11-2019 19.1 (13:00) 11.6 (01:10) 15.4 7.78 (10:50) 5 (10:00) 0 0 0 0 0
27-11-2019 18.8 (09:40) 13 (00:00) 15.9 7.78 (04:00) 5.83 (04:50) 0 0 0 0 0
26-11-2019 18.7 (12:00) 12.9 (00:00) 15.8 8.33 (15:20) 6.39 (20:40) 0 0 0 0 0
25-11-2019 18.5 (12:00) 12.3 (07:40) 15.4 8.33 (01:00) 4.72 (01:00) 0 0 0 0 0
24-11-2019 18.2 (13:00) 12.9 (00:00) 15.6 11.39 (02:00) 7.78 (16:40) 0.3 0.1 0.2 0 0
23-11-2019 19.1 (13:00) 15.5 (00:00) 17.3 13.89 (06:20) 10.83 (06:20) 0.8 0.2 0.1 0 0.5
22-11-2019 20.4 (15:30) 15.4 (00:00) 17.9 11.39 (08:20) 8.61 (08:20) 3.2 2.3 0.9 0 0
21-11-2019 19.1 (15:50) 13.2 (00:00) 16.2 11.67 (13:10) 8.89 (13:10) 0 0 0 0 0
20-11-2019 19.4 (11:30) 10.1 (04:00) 14.8 10.83 (11:00) 7.78 (14:30) 0.3 0 0 0 0.3
19-11-2019 17.6 (13:10) 11 (00:00) 14.3 10.83 (00:10) 8.33 (00:50) 0.3 0.3 0 0 0
18-11-2019 17.9 (11:50) 13.2 (00:00) 15.5 10.28 (23:10) 7.5 (23:10) 0.1 0 0 0.1 0
17-11-2019 16.6 (12:00) 12.2 (00:00) 14.4 7.78 (12:10) 3.89 (16:30) 2 1.1 0.7 0.1 0.1
16-11-2019 16.7 (12:20) 12.5 (00:00) 14.6 16.11 (15:40) 11.11 (15:30) 1.9 1.7 0 0.2 0
15-11-2019 16.5 (12:20) 12.9 (00:00) 14.7 14.44 (05:50) 9.44 (05:50) 3.5 0.8 1 1.1 0.6
14-11-2019 18.2 (14:20) 14.5 (00:00) 16.4 13.33 (04:30) 7.22 (01:40) 0.9 0 0.1 0.1 0.7
13-11-2019 18.4 (12:40) 14 (00:00) 16.2 16.11 (17:40) 9.72 (17:40) 0 0 0 0 0
12-11-2019 18.7 (11:50) 14.5 (00:00) 16.6 18.89 (02:30) 11.67 (00:20) 1.1 0 0.4 0.7 0
11-11-2019 18.4 (11:10) 14.4 (07:30) 16.4 18.61 (23:00) 11.67 (23:50) 0 0 0 0 0

Gráficas

Temp. máximas Temp. mínimas Temp. medias Precipitaciones Rachas de viento máximas Velocidades máximas media en intervalos de 10 minutos

Datos horarios

Fecha y hora oficial Temperatura (ºC) Velocidad del viento (km/h) Dirección del viento Racha (km/h) Dirección de racha Precipitación (mm) Presión (hPa) Tendencia (hPa) Humedad (%)
2019-12-10 23:00:00 14.7 8 Nordeste 18 Norte 0 956 1.2 92
2019-12-10 22:00:00 14.2 4 Oeste 11 Norte 0 955.5 1.1 88
2019-12-10 21:00:00 13.3 4 Sudoeste 11 Oeste 0 955.2 0.9 89
2019-12-10 20:00:00 13.4 10 Oeste 15 Oeste 0 954.8 0.8 89
2019-12-10 19:00:00 13.8 7 Oeste 13 Nordeste 0 954.4 0.5 89
2019-12-10 18:00:00 15 8 Norte 15 Norte 0 954.3 0.1 81
2019-12-10 17:00:00 16.9 9 Sudeste 15 Sudeste 0 954 -0.7 74
2019-12-10 16:00:00 17.6 6 Sudeste 15 Este 0 953.9 -1.7 74
2019-12-10 15:00:00 17.1 9 Sudeste 22 Este 0 954.2 -1.7 77
2019-12-10 14:00:00 16.7 11 Sudeste 22 Este 0 954.7 -1.7 80
2019-12-10 13:00:00 16.7 14 Sudeste 24 Este 0 955.6 -0.8 80
2019-12-10 12:00:00 16.3 17 Sudeste 28 Sudeste 0 955.9 0.2 81
2019-12-10 11:00:00 15.8 15 Sudeste 26 Este 0 956.4 1 83
2019-12-10 10:00:00 14.6 14 Sudeste 22 Este 0 956.4 1.3 88
2019-12-10 09:00:00 13.6 13 Sudeste 21 Sudeste 0 955.7 0.8 90
2019-12-10 08:00:00 12.6 13 Sudeste 21 Sudeste 0 955.4 0.6 91
2019-12-10 07:00:00 12.1 13 Sudeste 22 Sudeste 0 955.1 -0.1 90
2019-12-10 06:00:00 12.2 11 Sudeste 21 Sudeste 0 954.9 -0.6 90
2019-12-10 05:00:00 11.5 12 Sudeste 17 Sudeste 0 954.8 -0.9 91
2019-12-10 04:00:00 11.4 8 Sudeste 13 Sudeste 0 955.2 -0.9 89
2019-12-10 03:00:00 12.2 11 Este 15 Sudeste 0 955.5 -1.1 87
2019-12-10 02:00:00 11.7 6 Este 18 Este 0 955.7 -1.1 88
2019-12-10 01:00:00 12 9 Sudeste 15 Este 0 956.1 -0.6 89
2019-12-10 00:00:00 11.9 7 Sudeste 17 Este 0 956.6 0.2 86
2019-12-09 23:00:00 12 8 Sudeste 17 Sur 0 956.8 0.8 87
2019-12-09 22:00:00 12.2 9 Sudeste 15 Sudeste 0 956.7 1.1 88
2019-12-09 21:00:00 11.6 7 Sur 11 Sur 0 956.4 1.1 88
2019-12-09 20:00:00 11.7 6 Sur 9 Sudeste 0 956 0.9 89
2019-12-09 19:00:00 12.6 0 Calma 13 Norte 0 955.6 0.5 83
2019-12-09 18:00:00 13.8 4 Nordeste 18 Sudeste 0 955.3 0.1 86
2019-12-09 17:00:00 15.2 11 Sudeste 26 Este 0 955.1 -0.3 84
2019-12-09 16:00:00 15.2 19 Este 28 Este 0 955.1 -1.3 82
2019-12-09 15:00:00 15.6 19 Sudeste 33 Este 0 955.2 -2 79
2019-12-09 14:00:00 15.4 22 Este 33 Sudeste 0 955.4 -2.1 79
2019-12-09 13:00:00 15.6 22 Este 35 Este 0 956.4 -0.9 81
2019-12-09 12:00:00 16.1 23 Este 33 Sudeste 0 957.2 0.5 76
2019-12-09 11:00:00 15.7 19 Este 32 Sudeste 0 957.5 1.1 77
2019-12-09 10:00:00 15 21 Este 30 Este 0 957.3 1.5 82
2019-12-09 09:00:00 13.7 18 Este 28 Este 0 956.7 1.1 89
2019-12-09 08:00:00 12.4 13 Sudeste 24 Este 0 956.4 0.7 90
2019-12-09 07:00:00 12.8 13 Este 21 Este 0 955.8 0.1 90
2019-12-09 06:00:00 12.6 9 Sudeste 15 Sudeste 0 955.6 -0.3 86
2019-12-09 05:00:00 12.4 8 Este 17 Este 0 955.7 -0.5 84
2019-12-09 04:00:00 12.9 6 Este 21 Este 0 955.7 -0.7 85
2019-12-09 03:00:00 13.1 10 Este 17 Sudeste 0 955.9 -0.9 83
2019-12-09 02:00:00 12.7 6 Este 13 Sudeste 0 956.2 -0.6 83
2019-12-09 01:00:00 12.1 2 Sudoeste 11 Nordeste 0 956.4 -0.3 86
2019-12-09 00:00:00 13.4 8 Nordeste 26 Nordeste 0 956.8 0.6 82
2019-12-08 23:00:00 13.8 9 Norte 33 Norte 0 956.8 1 82
2019-12-08 22:00:00 14.1 12 Norte 22 Norte 0 956.7 1.5 80
2019-12-08 21:00:00 13.9 11 Norte 21 Norte 0 956.2 1.4 80
2019-12-08 20:00:00 13.8 10 Norte 21 Norte 0 955.8 1.3 82
2019-12-08 19:00:00 14.3 10 Norte 22 Norte 0 955.2 0.9 82
2019-12-08 18:00:00 14.8 13 Norte 22 Norte 0 954.8 0.5 78
2019-12-08 17:00:00 15.2 10 Norte 22 Norte 0 954.5 -0.2 79
2019-12-08 16:00:00 15.8 13 Norte 26 Norte 0 954.3 -1.3 74
2019-12-08 15:00:00 16.5 13 Norte 28 Norte 0 954.3 -1.9 75
2019-12-08 14:00:00 15.9 15 Norte 28 Norte 0 954.7 -2 78
2019-12-08 13:00:00 16.5 15 Nordeste 30 Nordeste 0 955.6 -0.8 75
2019-12-08 12:00:00 16.2 13 Nordeste 32 Norte 0 956.2 0.3 75
2019-12-08 11:00:00 15.8 15 Norte 30 Norte 0 956.7 1.3 77
2019-12-08 10:00:00 14.6 15 Noroeste 22 Noroeste 0 956.4 1.7 85
2019-12-08 09:00:00 13.8 12 Norte 24 Norte 0 955.9 1.6 82
2019-12-08 08:00:00 12 4 Oeste 21 Noroeste 0 955.4 1.2 89
2019-12-08 07:00:00 12.8 13 Oeste 21 Oeste 0 954.7 0.3 86
2019-12-08 06:00:00 12.6 7 Oeste 11 Oeste 0 954.3 -0.2 85
2019-12-08 05:00:00 12.9 12 Norte 28 Norte 0 954.2 -0.7 84
2019-12-08 04:00:00 12.7 9 Oeste 13 Oeste 0 954.4 -0.7 89
2019-12-08 03:00:00 13 9 Oeste 15 Norte 0 954.5 -0.9 87
2019-12-08 02:00:00 13.5 5 Noroeste 18 Norte 0 954.9 -0.6 88
2019-12-08 01:00:00 13.5 7 Norte 21 Norte 0 955.1 -0.2 85
2019-12-08 00:00:00 13.4 10 Norte 22 Norte 0 955.4 0.4 86
2019-12-07 23:00:00 13.7 11 Norte 24 Norte 0 955.5 1.2 85
2019-12-07 22:00:00 13.8 14 Noroeste 28 Norte 0 955.3 1.6 87
2019-12-07 21:00:00 13.8 13 Noroeste 26 Noroeste 0 955 2.1 89
2019-12-07 20:00:00 13.8 15 Noroeste 26 Oeste 0 954.3 1.9 87
2019-12-07 19:00:00 13.8 13 Noroeste 26 Noroeste 0 953.7 1.5 87
2019-12-07 18:00:00 14.1 19 Noroeste 30 Norte 0 952.9 0.8 87
2019-12-07 17:00:00 14.9 18 Noroeste 30 Norte 0 952.4 0.1 87
2019-12-07 16:00:00 15.7 17 Norte 35 Norte 0 952.2 -0.6 82
2019-12-07 15:00:00 15.8 22 Norte 37 Norte 0 952.1 -1.2 81
2019-12-07 14:00:00 15.7 13 Norte 24 Norte 0 952.3 -1.4 83
2019-12-07 13:00:00 15.6 17 Noroeste 30 Norte 0 952.8 -0.4 85
2019-12-07 12:00:00 15.1 16 Noroeste 33 Norte 0 953.3 0.7 86
2019-12-07 11:00:00 14.7 19 Noroeste 30 Noroeste 0.2 953.7 1.6 89
2019-12-07 10:00:00 14.3 23 Noroeste 35 Noroeste 0.2 953.2 2 90
2019-12-07 09:00:00 14.1 23 Noroeste 39 Noroeste 0 952.6 1.7 91
2019-12-07 08:00:00 13 21 Noroeste 33 Noroeste 0 952.1 1.5 92
2019-12-07 07:00:00 12.7 26 Noroeste 33 Noroeste 0 951.2 0.7 89
2019-12-07 06:00:00 12.9 15 Noroeste 28 Noroeste 0 950.9 0.6 91
2019-12-07 05:00:00 13.1 17 Noroeste 33 Noroeste 0.3 950.6 0.4 92
2019-12-07 04:00:00 13.6 23 Noroeste 41 Noroeste 0 950.5 0.3 92
2019-12-07 03:00:00 13.6 23 Noroeste 42 Noroeste 0 950.3 0 91
2019-12-07 02:00:00 13.6 23 Noroeste 37 Noroeste 0.1 950.2 0.2 90
2019-12-07 01:00:00 13.7 18 Noroeste 35 Norte 0 950.2 0.5 90
2019-12-07 00:00:00 13.7 17 Noroeste 42 Noroeste 0 950.3 0.7 85
2019-12-06 23:00:00 13.9 27 Noroeste 48 Noroeste 0 950 1 86
2019-12-06 22:00:00 13.7 30 Noroeste 48 Noroeste 0 949.7 1.4 90
2019-12-06 21:00:00 13.9 31 Noroeste 52 Oeste 0 949.6 1.8 88
2019-12-06 20:00:00 13.7 27 Noroeste 50 Norte 0 949 1.4 90
2019-12-06 19:00:00 13.8 32 Noroeste 55 Noroeste 0 948.3 1.2 84
2019-12-06 18:00:00 13.9 31 Noroeste 52 Noroeste 0 947.8 0.8 86
2019-12-06 17:00:00 14.2 35 Noroeste 55 Noroeste 0 947.6 0.4 88
2019-12-06 16:00:00 14.2 39 Noroeste 61 Noroeste 0 947.1 -0.5 81
2019-12-06 15:00:00 14.6 34 Noroeste 58 Noroeste 0 947 -1.3 87
2019-12-06 14:00:00 14.2 35 Noroeste 52 Noroeste 0.4 947.2 -1.3 92
2019-12-06 13:00:00 15 34 Noroeste 61 Noroeste 0 947.6 -0.6 84
2019-12-06 12:00:00 15.1 30 Noroeste 54 Noroeste 0 948.3 1 86
2019-12-06 11:00:00 14 32 Noroeste 54 Noroeste 0 948.5 1.9 89
2019-12-06 10:00:00 14.3 29 Noroeste 48 Oeste 0 948.2 2.1 83
2019-12-06 09:00:00 13.7 30 Noroeste 48 Noroeste 0 947.3 1.5 83
2019-12-06 08:00:00 13.3 31 Noroeste 50 Noroeste 0 946.6 1.5 84
2019-12-06 07:00:00 13.4 30 Noroeste 54 Noroeste 0 946.1 1.2 86
2019-12-06 06:00:00 13.3 24 Noroeste 46 Noroeste 0 945.8 1 85
2019-12-06 05:00:00 13.2 22 Noroeste 52 Oeste 0.5 945.1 0.2 93
2019-12-06 04:00:00 12.7 27 Noroeste 52 Noroeste 0 944.9 0 97
2019-12-06 03:00:00 12.8 36 Noroeste 55 Noroeste 0 944.8 -0.1 97
2019-12-06 02:00:00 12.8 33 Noroeste 67 Noroeste 0 944.9 0.1 94
2019-12-06 01:00:00 13 34 Noroeste 68 Noroeste 0 944.9 0.1 93
2019-12-06 00:00:00 12.9 44 Noroeste 67 Noroeste 3.6 944.9 0.3 91
2019-12-05 23:00:00 12.9 41 Noroeste 63 Noroeste 1 944.8 0.8 94
2019-12-05 22:00:00 12.8 37 Noroeste 67 Noroeste 0 944.8 1 89
2019-12-05 21:00:00 13 45 Noroeste 65 Noroeste 0 944.6 1.5 87
2019-12-05 20:00:00 12.2 38 Noroeste 65 Noroeste 3.3 944 1.1 98
2019-12-05 19:00:00 12.2 35 Noroeste 63 Noroeste 0.3 943.8 1.4 89
2019-12-05 18:00:00 13.1 40 Noroeste 58 Noroeste 0 943.1 0.8 83
2019-12-05 17:00:00 13.3 39 Noroeste 67 Noroeste 0 942.9 0.5 81
2019-12-05 16:00:00 13.9 49 Noroeste 65 Noroeste 0 942.4 -1 81
2019-12-05 15:00:00 13.8 48 Noroeste 67 Noroeste 0 942.3 -2 82
2019-12-05 14:00:00 13.3 45 Noroeste 65 Noroeste 4.4 942.4 -2.2 91
2019-12-05 13:00:00 12.8 41 Noroeste 61 Noroeste 3.9 943.4 -1.1 96
2019-12-05 12:00:00 13.4 41 Noroeste 63 Noroeste 4.1 944.3 0.3 92
2019-12-05 11:00:00 13.1 45 Noroeste 76 Noroeste 0 944.6 0.7 93
2019-12-05 10:00:00 13.2 37 Noroeste 63 Noroeste 0 944.5 1.2 91
2019-12-05 09:00:00 12.3 41 Noroeste 76 Noroeste 1.3 944 1 97
2019-12-05 08:00:00 11.9 41 Noroeste 63 Noroeste 1.3 943.9 0.7 89
2019-12-05 07:00:00 12.8 35 Noroeste 61 Noroeste 0 943.3 -0.3 81
2019-12-05 06:00:00 12.8 40 Noroeste 59 Noroeste 0 943 -0.6 81
2019-12-05 05:00:00 12.6 42 Noroeste 59 Noroeste 0.3 943.2 -0.5 83
2019-12-05 04:00:00 12.7 37 Noroeste 68 Noroeste 0 943.6 -0.9 92
2019-12-05 03:00:00 12.6 48 Noroeste 67 Noroeste 0.6 943.6 -1.6 84
2019-12-05 02:00:00 13 39 Noroeste 67 Noroeste 2.1 943.7 -1.6 95
2019-12-05 01:00:00 13.8 42 Noroeste 61 Oeste 4.5 944.5 -1.6 100
2019-12-05 00:00:00 13.8 39 Noroeste 54 Oeste 3.8 945.2 -1.3 99
2019-12-04 23:00:00 14.4 31 Oeste 45 Oeste 0 945.3 -1.1 86
2019-12-04 22:00:00 14.1 30 Oeste 46 Oeste 0 946.1 -0.2 91
2019-12-04 21:00:00 14 32 Oeste 48 Noroeste 0.2 946.5 0.2 96
2019-12-04 20:00:00 14.2 31 Oeste 52 Noroeste 0 946.4 0 90
2019-12-04 19:00:00 14.4 38 Noroeste 52 Noroeste 0 946.3 -0.4 85
2019-12-04 18:00:00 14.5 30 Noroeste 46 Noroeste 0 946.3 0 82
2019-12-04 17:00:00 14.8 37 Noroeste 55 Noroeste 0 946.4 -0.5 82
2019-12-04 16:00:00 15 33 Noroeste 48 Oeste 0 946.7 -1.1 83
2019-12-04 15:00:00 15.8 24 Oeste 45 Oeste 0 946.3 -2.7 82
2019-12-04 14:00:00 15.7 35 Noroeste 46 Noroeste 0 946.9 -2.5 79
2019-12-04 13:00:00 16.7 31 Oeste 41 Noroeste 0 947.8 -1.7 72
2019-12-04 12:00:00 16.5 28 Noroeste 41 Oeste 0 949 0 64
2019-12-04 11:00:00 15.7 31 Oeste 41 Oeste 0 949.4 0.9 69
2019-12-04 10:00:00 14.9 22 Oeste 30 Oeste 0 949.5 1 70
2019-12-04 09:00:00 13.6 14 Oeste 24 Oeste 0 949 1.2 80
2019-12-04 08:00:00 13 12 Oeste 22 Oeste 0 948.5 0.8 87
2019-12-04 07:00:00 13.2 16 Noroeste 26 Oeste 0 948.5 0.5 86
2019-12-04 06:00:00 12.9 18 Noroeste 30 Noroeste 0 947.8 -0.5 86
2019-12-04 05:00:00 13.4 18 Noroeste 32 Noroeste 0 947.7 -0.7 87
2019-12-04 04:00:00 13.5 20 Noroeste 32 Oeste 0 948 -0.4 87
2019-12-04 03:00:00 13.3 21 Noroeste 32 Noroeste 0 948.3 -0.7 88
2019-12-04 02:00:00 13.1 21 Noroeste 32 Noroeste 0 948.4 -0.8 91
2019-12-04 01:00:00 13.2 15 Noroeste 22 Noroeste 0 948.4 -0.5 92
2019-12-04 00:00:00 12.9 20 Oeste 32 Oeste 0.1 949 0.5 93
2019-12-03 23:00:00 12.6 18 Noroeste 28 Oeste 0 949.2 1.3 95
2019-12-03 22:00:00 12.4 25 Noroeste 42 Norte 0.2 948.9 1.6 94
2019-12-03 21:00:00 13.6 27 Noroeste 39 Oeste 0 948.5 1.6 84
2019-12-03 20:00:00 13.8 22 Noroeste 35 Oeste 0 947.9 1.1 86
2019-12-03 19:00:00 13.7 23 Noroeste 32 Noroeste 0 947.3 0.9 84
2019-12-03 18:00:00 13.7 20 Noroeste 35 Noroeste 0 946.9 0.7 87
2019-12-03 17:00:00 14.1 25 Noroeste 37 Norte 0 946.8 0.6 83
2019-12-03 16:00:00 14.9 24 Noroeste 42 Norte 0 946.4 -0.1 83
2019-12-03 15:00:00 14.9 24 Noroeste 42 Noroeste 0 946.2 -0.8 76
2019-12-03 14:00:00 14.8 28 Noroeste 45 Noroeste 0 946.2 -0.9 81
2019-12-03 13:00:00 15.6 27 Noroeste 42 Noroeste 0 946.5 -0.4 73
2019-12-03 12:00:00 15.1 24 Noroeste 48 Norte 0 947 0.5 82
2019-12-03 11:00:00 14.3 31 Noroeste 54 Noroeste 0 947.1 1.1 84
2019-12-03 10:00:00 13.6 27 Noroeste 45 Oeste 0 946.9 1.6 89
2019-12-03 09:00:00 13 27 Oeste 42 Noroeste 0 946.5 1.9 94
2019-12-03 08:00:00 12.7 30 Noroeste 50 Noroeste 2.3 946 1.6 98
2019-12-03 07:00:00 12.5 30 Oeste 42 Oeste 0.6 945.3 0.8 93
2019-12-03 06:00:00 12.9 32 Noroeste 50 Oeste 0 944.6 0 96
2019-12-03 05:00:00 12.8 31 Noroeste 46 Oeste 0 944.4 -0.3 95
2019-12-03 04:00:00 12.7 31 Oeste 50 Oeste 0 944.5 -0.7 99
2019-12-03 03:00:00 12.3 27 Noroeste 46 Noroeste 2.5 944.6 -0.8 99
2019-12-03 02:00:00 12.4 32 Oeste 46 Oeste 0 944.7 -0.8 94
2019-12-03 01:00:00 12.3 31 Noroeste 52 Oeste 1.6 945.2 -0.4 98
2019-12-03 00:00:00 12.5 33 Oeste 52 Noroeste 0.1 945.4 -0.3 99
2019-12-02 23:00:00 13.8 35 Noroeste 52 Noroeste 0 945.5 0 92
2019-12-02 22:00:00 13.5 38 Noroeste 58 Oeste 0 945.6 0.4 93
2019-12-02 21:00:00 13.9 34 Noroeste 52 Noroeste 0 945.7 0.5 95
2019-12-02 20:00:00 14 30 Noroeste 50 Noroeste 0 945.5 0.2 93
2019-12-02 19:00:00 14.4 23 Noroeste 48 Noroeste 0 945.2 -0.2 92
2019-12-02 18:00:00 14.5 29 Noroeste 41 Noroeste 0 945.2 -0.2 85
2019-12-02 17:00:00 15 28 Noroeste 45 Oeste 0 945.3 -0.6 80
2019-12-02 16:00:00 15.2 26 Noroeste 41 Noroeste 0 945.4 -1.3 79
2019-12-02 15:00:00 15.4 28 Noroeste 41 Noroeste 0 945.4 -2.1 78
2019-12-02 14:00:00 15.4 27 Noroeste 45 Noroeste 0 945.9 -2 87
2019-12-02 13:00:00 16.2 25 Noroeste 45 Noroeste 0 946.7 -1.4 86
2019-12-02 12:00:00 17 32 Noroeste 41 Oeste 0 947.5 -0.2 83
2019-12-02 11:00:00 15.8 31 Noroeste 45 Noroeste 0 947.9 0.4 89
2019-12-02 10:00:00 15 31 Oeste 50 Oeste 0 948.1 1.1 96
2019-12-02 09:00:00 14.8 37 Noroeste 52 Oeste 0 947.7 0.6 94
2019-12-02 08:00:00 13.8 35 Oeste 55 Oeste 0 947.5 -0.2 96
2019-12-02 07:00:00 14 41 Oeste 54 Noroeste 0 947 -1.2 97
2019-12-02 06:00:00 14.1 42 Noroeste 55 Noroeste 0 947.1 -1.3 94
2019-12-02 05:00:00 14.5 33 Noroeste 48 Noroeste 0.1 947.7 -1.2 98
2019-12-02 04:00:00 14.2 31 Oeste 42 Oeste 0.1 948.2 -1.1 96
2019-12-02 03:00:00 14.6 31 Oeste 61 Oeste 0 948.4 -1.5 89
2019-12-02 02:00:00 14.3 26 Oeste 41 Oeste 0 948.9 -1.3 90
2019-12-02 01:00:00 14.3 24 Noroeste 37 Noroeste 0 949.3 -0.9 94
2019-12-02 00:00:00 14.3 25 Oeste 41 Oeste 0 949.9 -0.4 95
2019-12-01 23:00:00 13.8 27 Oeste 35 Noroeste 0 950.2 -0.2 93
2019-12-01 22:00:00 13.1 22 Oeste 32 Oeste 0 950.2 0 93
2019-12-01 21:00:00 13.6 13 Oeste 26 Oeste 0 950.3 0.1 90
2019-12-01 20:00:00 13.7 17 Oeste 30 Oeste 0 950.4 0.4 91
2019-12-01 19:00:00 14.6 19 Noroeste 28 Noroeste 0 950.2 0.4 88
2019-12-01 18:00:00 15.4 17 Noroeste 32 Noroeste 0 950.2 0.2 87
2019-12-01 17:00:00 16.5 22 Noroeste 32 Noroeste 0 950 -0.2 78
2019-12-01 16:00:00 17.6 21 Oeste 32 Oeste 0 949.8 -1 76
2019-12-01 15:00:00 17.9 26 Oeste 32 Oeste 0 950 -1.7 80
2019-12-01 14:00:00 18.8 18 Oeste 28 Oeste 0 950.2 -1.9 76
2019-12-01 13:00:00 18.7 21 Oeste 26 Oeste 0 950.8 -1 72
2019-12-01 12:00:00 18.4 15 Noroeste 22 Oeste 0 951.7 0.4 77
2019-12-01 11:00:00 19.1 5 Este 11 Norte 0 952.1 1 74
2019-12-01 10:00:00 18.5 0 Calma 5 Noroeste 0 951.8 1.2 72
2019-12-01 09:00:00 16.4 2 Sudeste 11 Sur 0 951.3 1.1 84
2019-12-01 08:00:00 12.6 9 Sur 11 Sur 0 951.1 1.2 92
2019-12-01 07:00:00 12.5 6 Sudoeste 11 Sudoeste 0 950.6 0.5 85
2019-12-01 06:00:00 13 6 Sur 11 Sur 0 950.2 -0.2 86
2019-12-01 05:00:00 12.7 4 Noroeste 11 Sur 0 949.9 -0.8 85
2019-12-01 04:00:00 13.3 10 Sur 13 Sur 0 950.1 -0.6 82
2019-12-01 03:00:00 12.4 4 Oeste 11 Sudeste 0 950.4 -0.7 87
2019-12-01 02:00:00 13.3 6 Oeste 8 Noroeste 0 950.7 -0.4 83
2019-12-01 01:00:00 13.6 5 Sudeste 8 Sudeste 0 950.7 -0.4 70
2019-12-01 00:00:00 14.9 4 Sudeste 9 Sudeste 0 951.1 0.1 55
2019-11-30 23:00:00 17 9 Oeste 13 Oeste 0 951.1 0.3 43
2019-11-30 22:00:00 17.7 4 Sudeste 8 Sudeste 0 951.1 0.7 40
2019-11-30 21:00:00 17.8 0 Calma 5 Sudeste 0 951 0.9 45
2019-11-30 20:00:00 15.4 0 Calma 4 Oeste 0 950.8 0.9 72
2019-11-30 19:00:00 15.4 0 Calma 9 Este 0 950.4 0.6 86
2019-11-30 18:00:00 16.7 6 Sudeste 13 Este 0 950.1 0.4 94
2019-11-30 17:00:00 18.1 11 Este 18 Este 0 949.9 -0.1 88
2019-11-30 16:00:00 19.5 13 Este 22 Sudeste 0 949.8 -0.7 79
2019-11-30 15:00:00 20.6 12 Este 21 Este 0 949.7 -1.4 64
2019-11-30 14:00:00 22.6 15 Este 22 Este 0 950 -1.4 41
2019-11-30 13:00:00 22.8 16 Este 26 Este 0 950.5 -0.6 31
2019-11-30 12:00:00 23.2 16 Este 26 Este 0 951.1 0.4 32
2019-11-30 11:00:00 22.5 13 Sudeste 21 Sudeste 0 951.4 1.3 33
2019-11-30 10:00:00 21.4 14 Sudeste 21 Sudeste 0 951.1 1.5 35
2019-11-30 09:00:00 20.3 12 Sudeste 18 Sudeste 0 950.7 1.4 37
2019-11-30 08:00:00 18.3 13 Sudeste 18 Sudeste 0 950.1 0.9 41
2019-11-30 07:00:00 18.2 13 Sudeste 21 Sudeste 0 949.6 0.5 44
2019-11-30 06:00:00 18.3 13 Sudeste 22 Sudeste 0 949.3 0.2 40
2019-11-30 05:00:00 18.6 12 Sudeste 21 Sudeste 0 949.2 0.1 38
2019-11-30 04:00:00 18 13 Sudeste 18 Sur 0 949.1 0 40
2019-11-30 03:00:00 18.1 12 Sudeste 18 Sudeste 0 949.1 0 44
2019-11-30 02:00:00 17.4 12 Sudeste 18 Sudeste 0 949.1 0.1 54
2019-11-30 01:00:00 17.1 12 Sudeste 18 Sudeste 0 949.1 0.2 62
2019-11-30 00:00:00 17.2 13 Sudeste 18 Sudeste 0 949.1 0.6 62
2019-11-29 23:00:00 16.4 13 Sur 17 Sudeste 0 949 0.9 66
2019-11-29 22:00:00 16.4 11 Sudeste 17 Sudeste 0 948.9 1.2 68
2019-11-29 21:00:00 16.4 14 Sur 18 Sur 0 948.5 1.1 74
2019-11-29 20:00:00 16.4 13 Sur 17 Sur 0 948.1 1.1 77
2019-11-29 19:00:00 16.7 12 Sudeste 17 Sudeste 0 947.7 0.9 85
2019-11-29 18:00:00 17.3 13 Sudeste 21 Sudeste 0 947.4 0.4 85
2019-11-29 17:00:00 18.7 14 Sudeste 22 Este 0 947 -0.2 78
2019-11-29 16:00:00 20.4 15 Este 22 Este 0 946.8 -1.2 72
2019-11-29 15:00:00 20.9 12 Este 24 Este 0 947 -1.5 67
2019-11-29 14:00:00 21 16 Este 26 Este 0 947.2 -1.5 63
2019-11-29 13:00:00 20.9 19 Este 26 Este 0 948 -0.5 58
2019-11-29 12:00:00 20.5 17 Este 24 Este 0 948.5 0.4 64
2019-11-29 11:00:00 19.6 15 Sudeste 26 Sudeste 0 948.7 1.1 66
2019-11-29 10:00:00 18.4 16 Sudeste 26 Sudeste 0 948.5 1.5 66
2019-11-29 09:00:00 17.3 14 Sudeste 28 Sudeste 0 948.1 1.4 64
2019-11-29 08:00:00 16.3 16 Sudeste 28 Sudeste 0 947.6 1.1 62
2019-11-29 07:00:00 16.6 17 Sudeste 30 Sur 0 947 0.3 57
2019-11-29 06:00:00 16.6 15 Sudeste 26 Sur 0 946.7 0 56
2019-11-29 05:00:00 16.3 17 Sudeste 24 Sur 0 946.5 -0.2 59
2019-11-29 04:00:00 16.1 14 Sudeste 22 Sur 0 946.7 -0.1 62
2019-11-29 03:00:00 16 14 Sudeste 24 Sur 0 946.7 -0.2 73
2019-11-29 02:00:00 16.8 13 Sudeste 24 Sur 0 946.7 -0.5 68
2019-11-29 01:00:00 16.9 15 Sur 24 Sudeste 0 946.8 -0.4 64
2019-11-29 00:00:00 17.1 10 Sudeste 18 Sur 0 946.9 -0.1 59
2019-11-28 23:00:00 18.1 10 Sudeste 21 Sur 0 947.2 0.7 55
2019-11-28 22:00:00 16.2 3 Nordeste 15 Sur 0 947.2 1.1 74
2019-11-28 21:00:00 17.2 9 Sur 15 Sur 0 947 1.1 56
2019-11-28 20:00:00 16.1 0 Calma 15 Oeste 0 946.5 1 67
2019-11-28 19:00:00 15.4 12 Oeste 17 Oeste 0 946.1 0.7 90
2019-11-28 18:00:00 16.9 3 Sudeste 9 Sudeste 0 945.9 0.4 73
2019-11-28 17:00:00 18 6 Sudeste 15 Sudeste 0 945.5 -0.5 75
2019-11-28 16:00:00 18.4 10 Sudeste 15 Sudeste 0 945.4 -1.5 75
2019-11-28 15:00:00 18.8 9 Sudeste 21 Sudeste 0 945.5 -2.3 68
2019-11-28 14:00:00 18.5 10 Sudeste 18 Sudeste 0 946 -2.2 70
2019-11-28 13:00:00 18.7 11 Sudeste 18 Sudeste 0 946.9 -1.1 74
2019-11-28 12:00:00 17.3 11 Sudeste 22 Este 0 947.8 0.1 85
2019-11-28 11:00:00 15.7 17 Sudeste 28 Sudeste 0 948.2 1 92
2019-11-28 10:00:00 14.9 18 Sudeste 26 Sudeste 0 948 1.2 94
2019-11-28 09:00:00 14.5 12 Sudeste 17 Sudeste 0 947.7 1.8 96
2019-11-28 08:00:00 13.5 10 Sudeste 15 Sudeste 0 947.2 1.4 98
2019-11-28 07:00:00 13 10 Sur 13 Sur 0 946.8 0.6 98
2019-11-28 06:00:00 12.8 9 Sur 13 Sur 0 945.9 -0.6 97
2019-11-28 05:00:00 12.9 7 Sur 11 Sur 0 945.8 -1 97
2019-11-28 04:00:00 12.4 8 Sur 9 Sur 0 946.2 -0.9 96
2019-11-28 03:00:00 12.7 4 Sudoeste 9 Sudoeste 0 946.5 -1 96
2019-11-28 02:00:00 12.6 5 Sur 9 Sur 0 946.8 -0.9 94
2019-11-28 01:00:00 12.3 0 Calma 11 Sur 0 947.1 -0.6 93
2019-11-28 00:00:00 13.6 10 Sudoeste 13 Sudoeste 0 947.5 0 92
2019-11-27 23:00:00 13.7 8 Oeste 15 Oeste 0 947.7 0.6 94
2019-11-27 22:00:00 13.6 13 Oeste 21 Oeste 0 947.7 0.8 96
2019-11-27 21:00:00 13.8 15 Oeste 21 Oeste 0 947.5 1 95
2019-11-27 20:00:00 13.8 13 Oeste 21 Oeste 0 947.1 0.7 95
2019-11-27 19:00:00 14.2 14 Oeste 24 Oeste 0 946.9 0.6 94
2019-11-27 18:00:00 15 14 Oeste 18 Oeste 0 946.5 0.2 92
2019-11-27 17:00:00 16.9 11 Oeste 21 Oeste 0 946.4 -0.1 85
2019-11-27 16:00:00 17.4 13 Oeste 21 Oeste 0 946.3 -1.1 85
2019-11-27 15:00:00 17.5 14 Oeste 21 Oeste 0 946.3 -1.9 85
2019-11-27 14:00:00 17.9 6 Este 18 Este 0 946.5 -2.1 83
2019-11-27 13:00:00 17.9 11 Este 18 Este 0 947.4 -1 84
2019-11-27 05:00:00 13.2 21 Oeste 28 Oeste 0 946.4 -0.8 96
2019-11-27 04:00:00 13.4 19 Oeste 28 Oeste 0 946.5 -1.1 94
2019-11-27 03:00:00 14.2 16 Noroeste 24 Oeste 0 947 -1 98
2019-11-27 02:00:00 13.9 17 Oeste 21 Oeste 0 947.2 -0.9 98
2019-11-27 01:00:00 14.1 14 Oeste 22 Oeste 0 947.6 -0.5 94
2019-11-27 00:00:00 13.5 17 Oeste 22 Oeste 0 948 0 98
2019-11-26 23:00:00 14.1 11 Oeste 17 Oeste 0 948.1 0.2 97
2019-11-26 22:00:00 13.7 14 Oeste 24 Noroeste 0 948.1 0.7 94
2019-11-26 21:00:00 14.1 20 Oeste 30 Oeste 0 948 1 96
2019-11-26 20:00:00 14.2 19 Noroeste 26 Noroeste 0 947.9 1.1 94
2019-11-26 19:00:00 14.3 20 Noroeste 26 Oeste 0 947.4 0.5 96
2019-11-26 18:00:00 14.8 20 Oeste 26 Oeste 0 947 0.1 95
2019-11-26 17:00:00 15.8 18 Noroeste 30 Oeste 0 946.8 -0.5 90
2019-11-26 16:00:00 16.6 21 Noroeste 30 Noroeste 0 946.9 -1 87
2019-11-26 15:00:00 16.8 18 Noroeste 26 Noroeste 0 946.9 -1.6 87
2019-11-26 14:00:00 16.8 18 Noroeste 26 Oeste 0 947.3 -1.5 90
2019-11-26 13:00:00 17.3 14 Oeste 22 Oeste 0 947.9 -0.9 83
2019-11-26 12:00:00 18.4 4 Norte 17 Este 0 948.5 0.2 80
2019-11-26 11:00:00 16.5 7 Este 13 Este 0 948.8 1 86
2019-11-26 10:00:00 16.3 0 Calma 9 Sudeste 0 948.8 1.3 86
2019-11-26 09:00:00 15.5 5 Sur 11 Sudeste 0 948.3 1.1 90
2019-11-26 08:00:00 14 4 Sudeste 11 Este 0 947.8 0.8 93
2019-11-26 07:00:00 13.2 7 Sudoeste 15 Oeste 0 947.5 0.4 94
2019-11-26 06:00:00 13.6 11 Oeste 13 Oeste 0 947.2 -0.3 96
2019-11-26 05:00:00 13.2 9 Sudoeste 13 Sudoeste 0 947 -1.1 95
2019-11-26 04:00:00 13.6 11 Oeste 17 Oeste 0 947.1 -1.2 96
2019-11-26 03:00:00 13.8 10 Oeste 18 Oeste 0 947.5 -1.5 93
2019-11-26 02:00:00 13 14 Oeste 17 Oeste 0 948.1 -1.1 93
2019-11-26 01:00:00 13.7 7 Oeste 13 Oeste 0 948.3 -0.9 92
2019-11-26 00:00:00 13.8 11 Oeste 17 Oeste 0 949 -0.3 92
2019-11-25 23:00:00 14.2 5 Oeste 8 Oeste 0 949.2 0.4 90
2019-11-25 22:00:00 14.3 4 Noroeste 9 Noroeste 0 949.2 0.8 88
2019-11-25 21:00:00 14.5 4 Norte 15 Nordeste 0 949.3 1.1 87
2019-11-25 20:00:00 15.1 7 Noroeste 22 Noroeste 0 948.8 0.5 92
2019-11-25 19:00:00 15.1 11 Noroeste 21 Noroeste 0 948.4 0.2 90
2019-11-25 18:00:00 15.6 13 Noroeste 24 Noroeste 0 948.2 -0.2 89
2019-11-25 17:00:00 16.3 16 Oeste 24 Oeste 0 948.3 -0.4 82
2019-11-25 16:00:00 17.4 4 Sur 11 Sudeste 0 948.2 -1.2 77
2019-11-25 15:00:00 17.1 4 Sudoeste 15 Oeste 0 948.4 -1.6 78
2019-11-25 14:00:00 17.3 7 Oeste 18 Oeste 0 948.7 -1.8 77
2019-11-25 13:00:00 16.9 12 Oeste 18 Oeste 0 949.4 -0.8 79
2019-11-25 12:00:00 18.3 3 Oeste 18 Este 0 950 0.4 67
2019-11-25 11:00:00 16.6 4 Nordeste 15 Este 0 950.5 1.5 71
2019-11-25 10:00:00 16.7 5 Nordeste 11 Nordeste 0 950.2 1.6 74
2019-11-25 09:00:00 14.6 5 Oeste 9 Oeste 0 949.6 1.4 81
2019-11-25 08:00:00 12.9 8 Oeste 15 Noroeste 0 949 0.6 87
2019-11-25 07:00:00 13.3 6 Noroeste 15 Norte 0 948.6 0.2 88
2019-11-25 06:00:00 14.5 10 Oeste 15 Noroeste 0 948.2 -0.6 89
2019-11-25 05:00:00 14.1 8 Oeste 17 Norte 0 948.4 -1.1 85
2019-11-25 04:00:00 14.5 9 Noroeste 18 Noroeste 0 948.4 -1 87
2019-11-25 03:00:00 14.7 9 Noroeste 17 Noroeste 0 948.8 -1.1 84
2019-11-25 02:00:00 14.4 7 Norte 26 Noroeste 0 949.5 -0.4 81
2019-11-25 01:00:00 14.8 17 Noroeste 30 Noroeste 0 949.4 -0.1 84
2019-11-25 00:00:00 13.3 14 Noroeste 26 Noroeste 0 949.9 0.6 85
2019-11-24 23:00:00 13.4 16 Noroeste 28 Noroeste 0 949.9 0.9 86
2019-11-24 22:00:00 14.4 20 Noroeste 39 Noroeste 0 949.5 1 86
2019-11-24 21:00:00 14.7 24 Noroeste 39 Noroeste 0 949.3 0.9 93
2019-11-24 20:00:00 15.1 24 Noroeste 37 Noroeste 0 949 0.5 93
2019-11-24 19:00:00 15.3 26 Noroeste 39 Noroeste 0 948.5 0.1 93
2019-11-24 18:00:00 15.6 25 Noroeste 39 Oeste 0 948.4 -0.1 89
2019-11-24 17:00:00 16.1 24 Noroeste 37 Noroeste 0 948.5 -0.5 90
2019-11-24 16:00:00 17.1 27 Noroeste 37 Noroeste 0 948.4 -1.1 83
2019-11-24 15:00:00 17.5 23 Noroeste 32 Noroeste 0 948.5 -1.8 81
2019-11-24 14:00:00 17.6 18 Noroeste 28 Noroeste 0 949 -1.7 86
2019-11-24 13:00:00 17.9 17 Noroeste 26 Noroeste 0 949.5 -1 86
2019-11-24 12:00:00 17.2 18 Noroeste 32 Noroeste 0 950.3 0.5 93
2019-11-24 11:00:00 16.8 18 Noroeste 26 Noroeste 0 950.7 1.3 96
2019-11-24 10:00:00 16.1 16 Noroeste 32 Noroeste 0.2 950.5 1.8 98
2019-11-24 09:00:00 15.8 18 Noroeste 28 Oeste 0 949.8 1.5 96
2019-11-24 08:00:00 15.2 18 Oeste 30 Oeste 0 949.4 1.1 97
2019-11-24 07:00:00 14.9 17 Oeste 26 Oeste 0 948.7 0 97
2019-11-24 06:00:00 15.3 18 Noroeste 35 Noroeste 0 948.3 -0.4 99
2019-11-24 05:00:00 15.3 23 Oeste 33 Oeste 0.1 948.3 -0.7 98
2019-11-24 04:00:00 15.5 25 Oeste 39 Oeste 0 948.7 -0.7 97
2019-11-24 03:00:00 15.9 18 Noroeste 33 Oeste 0 948.7 -1.1 96
2019-11-24 02:00:00 15.9 26 Noroeste 41 Noroeste 0 949 -0.9 94
2019-11-24 01:00:00 15.9 23 Noroeste 39 Noroeste 0 949.4 -0.3 97
2019-11-24 00:00:00 15.9 24 Noroeste 37 Oeste 0.4 949.8 0.1 98
2019-11-23 23:00:00 16.1 23 Oeste 39 Oeste 0 949.9 0.4 96
2019-11-23 22:00:00 16.1 21 Noroeste 30 Noroeste 0 949.7 0.7 97
2019-11-23 21:00:00 16.3 21 Noroeste 28 Noroeste 0 949.7 1.2 97
2019-11-23 20:00:00 16.1 18 Noroeste 26 Noroeste 0 949.5 1.2 97
2019-11-23 19:00:00 16.7 17 Noroeste 30 Noroeste 0.1 949 1 95
2019-11-23 18:00:00 16.9 14 Noroeste 26 Noroeste 0 948.5 0.5 96
2019-11-23 17:00:00 17.4 18 Noroeste 32 Oeste 0 948.3 -0.1 95
2019-11-23 16:00:00 17.5 26 Oeste 37 Oeste 0 948 -1.1 93
2019-11-23 15:00:00 18 24 Noroeste 35 Noroeste 0 948 -1.7 89
2019-11-23 14:00:00 18.1 22 Noroeste 37 Noroeste 0 948.4 -1.6 89
2019-11-23 13:00:00 18.8 25 Noroeste 33 Noroeste 0 949.1 -0.5 86
2019-11-23 12:00:00 18.6 27 Oeste 41 Oeste 0 949.7 0.6 84
2019-11-23 11:00:00 17.8 27 Oeste 41 Oeste 0 950 1.4 87
2019-11-23 10:00:00 18 32 Noroeste 46 Noroeste 0 949.6 1.7 88
2019-11-23 09:00:00 16.9 34 Oeste 45 Oeste 0 949.1 1.7 97
2019-11-23 08:00:00 16.4 29 Oeste 41 Oeste 0 948.6 1.4 99
2019-11-23 07:00:00 16.1 31 Oeste 50 Noroeste 0.1 947.9 0.4 99
2019-11-23 06:00:00 16.4 35 Noroeste 46 Noroeste 0 947.4 -0.4 99
2019-11-23 05:00:00 16.3 33 Oeste 42 Oeste 0.2 947.2 -0.9 99
2019-11-23 04:00:00 16.4 33 Oeste 41 Oeste 0 947.5 -0.8 100
2019-11-23 03:00:00 16.1 31 Oeste 37 Oeste 0 947.8 -0.6 96
2019-11-23 02:00:00 16.1 22 Oeste 30 Oeste 0 948.1 -0.1 97
2019-11-23 01:00:00 15.7 18 Noroeste 32 Oeste 0 948.3 0.3 95
2019-11-23 00:00:00 15.9 25 Oeste 32 Oeste 0 948.4 0.4 95
2019-11-22 23:00:00 15.4 21 Oeste 37 Oeste 0 948.2 0.9 95
2019-11-22 22:00:00 15.4 28 Oeste 35 Oeste 0 948 1.3 92
2019-11-22 21:00:00 15.8 23 Noroeste 30 Noroeste 0 948 1.7 94
2019-11-22 20:00:00 15.7 19 Oeste 30 Noroeste 0 947.3 1 97
2019-11-22 19:00:00 16.1 24 Oeste 30 Oeste 0 946.7 0.4 95
2019-11-22 18:00:00 17 10 Oeste 24 Oeste 0 946.3 0.1 91
2019-11-22 17:00:00 18.1 17 Oeste 24 Noroeste 0 946.3 -0.2 87
2019-11-22 16:00:00 19.5 16 Noroeste 22 Noroeste 0 946.3 -0.7 77
2019-11-22 15:00:00 20 14 Oeste 24 Oeste 0 946.2 -1.2 76
2019-11-22 14:00:00 19.3 19 Noroeste 30 Oeste 0 946.5 -1.3 78
2019-11-22 13:00:00 18.5 22 Noroeste 32 Oeste 0 947 -0.2 86
2019-11-22 12:00:00 17.6 21 Oeste 35 Oeste 0 947.4 0.8 89
2019-11-22 11:00:00 16.8 23 Oeste 33 Oeste 0 947.8 1.9 96
2019-11-22 10:00:00 16 26 Oeste 35 Oeste 0 947.2 1.9 99
2019-11-22 09:00:00 15.7 21 Oeste 41 Oeste 0.1 946.6 1.8 100
2019-11-22 08:00:00 15.5 26 Oeste 37 Oeste 0.6 945.9 1.4 100
2019-11-22 07:00:00 15.7 21 Oeste 33 Oeste 0.2 945.3 0.5 100
2019-11-22 06:00:00 15.8 24 Oeste 33 Oeste 0 944.8 -0.2 100
2019-11-22 05:00:00 16 28 Oeste 35 Oeste 0.9 944.5 -0.7 100
2019-11-22 04:00:00 16.1 27 Oeste 37 Oeste 0.5 944.8 -0.5 99
2019-11-22 03:00:00 16.3 28 Oeste 35 Oeste 0.5 945 -0.6 98
2019-11-22 02:00:00 16.5 27 Oeste 37 Oeste 0.3 945.2 -0.2 98
2019-11-22 01:00:00 16.4 20 Oeste 35 Oeste 0.1 945.3 -0.2 98
2019-11-22 00:00:00 16.2 18 Oeste 33 Oeste 0 945.6 0.1 98
2019-11-21 23:00:00 16.5 18 Oeste 30 Oeste 0 945.4 0.4 93
2019-11-21 22:00:00 16.4 19 Oeste 33 Oeste 0 945.5 0.9 96
2019-11-21 21:00:00 16.5 20 Oeste 30 Oeste 0 945.5 0.9 98
2019-11-21 20:00:00 16.3 15 Oeste 21 Oeste 0 945 0.8 97
2019-11-21 19:00:00 16.7 11 Oeste 24 Oeste 0 944.6 0.3 92
2019-11-21 18:00:00 16.9 11 Oeste 28 Oeste 0 944.6 0.3 84
2019-11-21 17:00:00 18.2 22 Oeste 30 Oeste 0 944.2 -0.4 74
2019-11-21 16:00:00 18.6 23 Oeste 32 Oeste 0 944.3 -1.3 75
2019-11-21 15:00:00 17.9 18 Oeste 30 Oeste 0 944.3 -1.9 78
2019-11-21 14:00:00 18.3 22 Oeste 42 Oeste 0 944.6 -1.9 74
2019-11-21 13:00:00 18.2 29 Oeste 41 Oeste 0 945.6 -0.9 70
2019-11-21 12:00:00 18.2 20 Oeste 30 Oeste 0 946.2 0 72
2019-11-21 11:00:00 17.3 19 Oeste 30 Oeste 0 946.5 0.9 75
2019-11-21 10:00:00 16.6 21 Oeste 30 Oeste 0 946.5 1.2 78
2019-11-21 09:00:00 15.8 17 Oeste 26 Oeste 0 946.2 1.4 79
2019-11-21 08:00:00 14.2 12 Oeste 18 Noroeste 0 945.6 0.5 97
2019-11-21 07:00:00 -- -- -- -- -- -- -- -- --
2019-11-21 06:00:00 -- -- -- -- -- -- -- -- --
2019-11-21 05:00:00 -- -- -- -- -- -- -- -- --
2019-11-21 04:00:00 -- -- -- -- -- -- -- -- --
2019-11-21 03:00:00 -- -- -- -- -- -- -- -- --
2019-11-21 02:00:00 -- -- -- -- -- -- -- -- --
2019-11-21 01:00:00 -- -- -- -- -- -- -- -- --
2019-11-21 00:00:00 -- -- -- -- -- -- -- -- --
2019-11-20 23:00:00 -- -- -- -- -- -- -- -- --
2019-11-20 22:00:00 -- -- -- -- -- -- -- -- --
2019-11-20 21:00:00 -- -- -- -- -- -- -- -- --
2019-11-20 20:00:00 -- -- -- -- -- -- -- -- --
2019-11-20 19:00:00 -- -- -- -- -- -- -- -- --
2019-11-20 18:00:00 16 20 Oeste 28 Noroeste 0 945.9 0.1 97
2019-11-20 17:00:00 16.2 20 Oeste 32 Oeste 0 945.7 -0.6 93
2019-11-20 16:00:00 17 24 Oeste 35 Oeste 0 945.8 -1.1 85
2019-11-20 15:00:00 17.9 24 Oeste 37 Oeste 0 945.8 -1.7 77
2019-11-20 14:00:00 18.4 23 Oeste 33 Oeste 0 946.3 -1.6 75
2019-11-20 13:00:00 18.5 23 Noroeste 32 Oeste 0 946.9 -1.1 67
2019-11-20 12:00:00 18.7 14 Noroeste 26 Oeste 0 947.5 -0.2 68
2019-11-20 11:00:00 18.5 10 Sur 39 Sudoeste -- 947.9 0.8 71
2019-11-20 10:00:00 17 17 Oeste 22 Oeste 0 948 1.1 75
2019-11-20 09:00:00 15.3 5 Oeste 11 Oeste 0 947.7 0.7 75
2019-11-20 08:00:00 13.7 5 Sudoeste 11 Sudoeste 0 947.1 0.2 69
2019-11-20 07:00:00 13.5 8 Sudoeste 18 Oeste 0 946.9 -0.3 82
2019-11-20 06:00:00 13.2 10 Oeste 18 Sudoeste 0 947 -0.5 84
2019-11-20 05:00:00 13.7 10 Sudoeste 18 Oeste 0 946.9 -0.8 85
2019-11-20 04:00:00 10.3 10 Oeste 17 Sudoeste 0 947.2 -0.6 89
2019-11-20 03:00:00 13.2 9 Sudoeste 17 Sudoeste 0 947.5 -0.8 82
2019-11-20 02:00:00 12.9 12 Oeste 26 Oeste 0 947.7 -0.7 77
2019-11-20 01:00:00 12.3 17 Oeste 24 Oeste 0 947.8 -0.8 74
2019-11-20 00:00:00 13.9 14 Oeste 26 Oeste 0 948.3 -0.3 69
2019-11-19 23:00:00 13.1 19 Oeste 26 Oeste 0 948.4 0.1 78
2019-11-19 22:00:00 12.8 13 Oeste 21 Oeste 0 948.6 0.6 86
2019-11-19 21:00:00 13 12 Oeste 18 Oeste 0 948.6 0.7 92
2019-11-19 20:00:00 13.5 10 Oeste 21 Noroeste 0 948.3 0.3 94
2019-11-19 19:00:00 14 12 Oeste 26 Noroeste 0 948 0 93
2019-11-19 18:00:00 14.7 17 Noroeste 30 Noroeste 0 947.9 -0.1 89
2019-11-19 17:00:00 15.7 17 Noroeste 28 Noroeste 0 948 -0.5 84
2019-11-19 16:00:00 16.2 23 Oeste 30 Oeste 0 948 -1.2 84
2019-11-19 15:00:00 17.1 22 Oeste 35 Noroeste 0 948 -1.9 79
2019-11-19 14:00:00 17.3 23 Noroeste 33 Noroeste 0 948.5 -2 76
2019-11-19 13:00:00 16.8 26 Noroeste 33 Noroeste 0 949.2 -1.3 78
2019-11-19 12:00:00 17.1 22 Oeste 33 Oeste 0 949.9 -0.1 76
2019-11-19 11:00:00 16.4 25 Oeste 33 Noroeste 0 950.5 0.6 79
2019-11-19 10:00:00 15.5 23 Oeste 32 Oeste 0 950.5 0.8 89
2019-11-19 09:00:00 14.5 21 Oeste 26 Oeste 0 950 0.6 93
2019-11-19 08:00:00 12.6 12 Oeste 21 Oeste 0 949.9 0.6 93
2019-11-19 07:00:00 11.4 13 Oeste 22 Oeste 0 949.7 0.1 92
2019-11-19 06:00:00 12.6 16 Oeste 22 Oeste 0 949.4 -0.5 96
2019-11-19 05:00:00 13.2 16 Oeste 26 Noroeste 0 949.3 -0.6 95
2019-11-19 04:00:00 13 20 Oeste 26 Oeste 0.1 949.6 -0.8 95
2019-11-19 03:00:00 13.6 14 Noroeste 22 Noroeste 0.2 949.9 -1 96
2019-11-19 02:00:00 14 16 Noroeste 30 Noroeste 0 949.9 -1 93
2019-11-19 01:00:00 14.1 26 Noroeste 39 Oeste 0 950.4 -0.5 95
2019-11-19 00:00:00 14.1 25 Noroeste 37 Noroeste 0 950.9 0 95
2019-11-18 23:00:00 14.4 27 Noroeste 35 Noroeste 0 950.9 0.2 94
2019-11-18 22:00:00 14.2 22 Noroeste 32 Noroeste 0 950.9 0.4 95
2019-11-18 21:00:00 14.2 19 Noroeste 30 Noroeste 0 950.9 0.6 92
2019-11-18 20:00:00 13.8 19 Oeste 28 Noroeste 0 950.7 0.5 92
2019-11-18 19:00:00 13.9 17 Noroeste 24 Noroeste 0 950.5 0.4 91
2019-11-18 18:00:00 14.5 15 Noroeste 22 Noroeste 0.1 950.3 0.4 92
2019-11-18 17:00:00 14.8 14 Noroeste 26 Norte 0 950.2 0.1 88
2019-11-18 16:00:00 15.5 13 Norte 26 Norte 0 950.1 -0.7 87
2019-11-18 15:00:00 16.6 6 Nordeste 18 Este 0 949.9 -1.5 77
2019-11-18 14:00:00 16.5 13 Este 21 Este 0 950.1 -1.9 80
2019-11-18 13:00:00 16.8 10 Este 22 Sudeste 0 950.8 -1.2 75
2019-11-18 12:00:00 17.1 8 Norte 26 Este 0 951.4 -0.3 69
2019-11-18 11:00:00 16.5 14 Este 21 Este 0 952 0.7 74
2019-11-18 10:00:00 16.4 9 Este 21 Nordeste 0 952 1.2 72
2019-11-18 09:00:00 15.2 10 Norte 17 Noroeste 0 951.7 1.1 79
2019-11-18 08:00:00 13.8 5 Noroeste 15 Noroeste 0 951.3 0.7 85
2019-11-18 07:00:00 13.6 9 Norte 17 Noroeste 0 950.8 0.3 85
2019-11-18 06:00:00 13.6 5 Noroeste 15 Norte 0 950.6 -0.2 79
2019-11-18 05:00:00 13.6 6 Norte 22 Nordeste 0 950.6 -0.2 81
2019-11-18 04:00:00 13.9 5 Noroeste 15 Norte 0 950.5 -0.8 85
2019-11-18 03:00:00 13.8 4 Noroeste 11 Este 0 950.8 -0.7 83
2019-11-18 02:00:00 13.7 4 Nordeste 11 Este 0 950.8 -0.8 79
2019-11-18 01:00:00 14 6 Nordeste 15 Norte 0 951.3 -0.2 78
2019-11-18 00:00:00 14.1 10 Norte 22 Norte 0 951.5 0.1 75
2019-11-17 23:00:00 13.9 10 Norte 21 Norte 0 951.6 0.6 79
2019-11-17 22:00:00 13.2 6 Noroeste 21 Norte 0 951.5 1 81
2019-11-17 21:00:00 13.4 10 Norte 24 Norte 0 951.4 1.3 85
2019-11-17 20:00:00 13.2 10 Noroeste 22 Noroeste 0.1 951 1.1 93
2019-11-17 19:00:00 13.6 6 Noroeste 18 Norte 0 950.5 0.7 91
2019-11-17 18:00:00 14.3 10 Noroeste 21 Noroeste 0 950.1 0 79
2019-11-17 17:00:00 14.8 11 Norte 26 Norte 0 949.9 -0.4 79
2019-11-17 16:00:00 15 11 Norte 24 Nordeste 0 949.8 -1.2 79
2019-11-17 15:00:00 14 10 Nordeste 18 Norte 0.1 950.1 -1.8 89
2019-11-17 14:00:00 14.8 10 Norte 21 Norte 0 950.3 -2 85
2019-11-17 13:00:00 15.5 6 Norte 28 Nordeste 0 951 -1.2 72
2019-11-17 12:00:00 16.2 9 Nordeste 24 Norte 0 951.9 0 73
2019-11-17 11:00:00 14.8 8 Nordeste 24 Norte 0 952.3 1 82
2019-11-17 10:00:00 13.5 12 Norte 21 Nordeste 0 952.2 1.4 92
2019-11-17 09:00:00 13.2 2 Norte 17 Norte 0 951.9 1.5 92
2019-11-17 08:00:00 12.3 7 Noroeste 21 Norte 0.4 951.3 1.2 94
2019-11-17 07:00:00 12.6 10 Noroeste 17 Noroeste 0.3 950.8 0.4 94
2019-11-17 06:00:00 12.8 6 Oeste 18 Nordeste 0 950.4 0 92
2019-11-17 05:00:00 12.4 10 Oeste 15 Oeste 0.1 950.1 -0.3 95
2019-11-17 04:00:00 12.6 9 Oeste 13 Noroeste 0.5 950.4 -0.1 96
2019-11-17 03:00:00 12.9 3 Noroeste 13 Noroeste 0.3 950.4 -0.1 92
2019-11-17 02:00:00 13.2 8 Noroeste 24 Noroeste 0.2 950.4 -0.1 93
2019-11-17 01:00:00 13.8 11 Norte 24 Noroeste 0 950.5 0 85
2019-11-17 00:00:00 14 14 Noroeste 37 Norte 0 950.5 0.3 82
2019-11-16 23:00:00 13.6 13 Noroeste 32 Noroeste 0 950.5 0.6 86
2019-11-16 22:00:00 13.8 21 Norte 45 Noroeste 0 950.5 1.2 87
2019-11-16 21:00:00 14.1 24 Noroeste 39 Noroeste 0 950.2 1.4 79
2019-11-16 20:00:00 14.1 26 Noroeste 41 Noroeste 0 949.9 1.3 81
2019-11-16 19:00:00 13.9 22 Noroeste 48 Norte 0 949.3 1 88
2019-11-16 18:00:00 14 29 Noroeste 52 Noroeste 0 948.8 0.2 85
2019-11-16 17:00:00 14.7 34 Noroeste 55 Noroeste 0 948.6 -0.2 78
2019-11-16 16:00:00 15.6 35 Noroeste 58 Noroeste 0 948.3 -1.2 76
2019-11-16 15:00:00 14.9 32 Noroeste 48 Noroeste 0.2 948.6 -1.5 90
2019-11-16 14:00:00 15.6 33 Noroeste 55 Noroeste 0 948.8 -1.8 80
2019-11-16 13:00:00 15 36 Noroeste 54 Noroeste 0 949.5 -1 80
2019-11-16 12:00:00 16.2 31 Noroeste 48 Noroeste 0 950.1 0 69
2019-11-16 11:00:00 15.3 29 Noroeste 48 Noroeste 0 950.6 1.4 72
2019-11-16 10:00:00 15.1 28 Noroeste 54 Noroeste 0 950.5 1.9 70
2019-11-16 09:00:00 14 29 Noroeste 50 Noroeste 0 950.1 2 76
2019-11-16 08:00:00 13.3 32 Noroeste 50 Noroeste 0 949.2 1 77
2019-11-16 07:00:00 13.2 31 Noroeste 55 Noroeste 0 948.6 0.5 80
2019-11-16 06:00:00 13.2 33 Noroeste 52 Noroeste 0.1 948.1 -0.2 88
2019-11-16 05:00:00 13 26 Noroeste 46 Noroeste 0.3 948.2 -0.2 90
2019-11-16 04:00:00 13.2 26 Noroeste 45 Noroeste 0 948.1 -0.3 83
2019-11-16 03:00:00 13.1 24 Noroeste 50 Noroeste 0.3 948.3 -0.5 92
2019-11-16 02:00:00 13 29 Noroeste 42 Noroeste 1 948.4 -0.2 96
2019-11-16 01:00:00 13.3 25 Noroeste 39 Noroeste 0 948.4 0.1 91
2019-11-16 00:00:00 13.2 19 Noroeste 42 Norte 0 948.8 0.9 88
2019-11-15 23:00:00 13.3 22 Noroeste 41 Norte 0.4 948.6 1 85
2019-11-15 22:00:00 13.7 19 Noroeste 39 Noroeste 0.2 948.3 1.1 89
2019-11-15 21:00:00 13.8 22 Noroeste 37 Norte 0 947.9 1.2 81
2019-11-15 20:00:00 13.8 16 Norte 41 Norte 0 947.6 0.8 81
2019-11-15 19:00:00 14 15 Noroeste 33 Norte 0 947.2 0.6 82
2019-11-15 18:00:00 14.1 21 Noroeste 42 Noroeste 0 946.7 -0.1 81
2019-11-15 17:00:00 14.8 25 Noroeste 42 Noroeste 0 946.8 -0.3 77
2019-11-15 16:00:00 15.2 29 Norte 46 Noroeste 0 946.6 -1 77
2019-11-15 15:00:00 14.7 22 Norte 37 Noroeste 0.2 946.8 -1.6 86
2019-11-15 14:00:00 15.1 26 Norte 37 Norte 0.1 947.1 -1.5 90
2019-11-15 13:00:00 14.5 25 Noroeste 42 Noroeste 0.8 947.6 -0.7 95
2019-11-15 12:00:00 14.9 24 Noroeste 48 Noroeste 0 948.4 0.4 92
2019-11-15 11:00:00 14.7 26 Noroeste 45 Noroeste 0.3 948.6 1.3 93
2019-11-15 10:00:00 15 27 Noroeste 46 Noroeste 0 948.3 1.4 89
2019-11-15 09:00:00 14.2 27 Norte 45 Noroeste 0.2 948 1.3 93
2019-11-15 08:00:00 14.3 24 Noroeste 42 Noroeste 0 947.3 0.7 89
2019-11-15 07:00:00 14.7 31 Noroeste 48 Norte 0.5 946.9 0 93
2019-11-15 06:00:00 14.3 29 Noroeste 52 Noroeste 0.8 946.7 -0.7 94
2019-11-15 05:00:00 15.1 28 Noroeste 46 Norte 0 946.6 -1.3 88
2019-11-15 04:00:00 14.9 26 Noroeste 46 Noroeste 0 946.9 -1.2 85
2019-11-15 03:00:00 14.9 23 Noroeste 37 Noroeste 0 947.4 -1 80
2019-11-15 02:00:00 14.6 22 Noroeste 39 Norte 0 947.9 -0.7 83
2019-11-15 01:00:00 15 19 Noroeste 35 Norte 0 948.1 -0.4 86
2019-11-15 00:00:00 14.8 17 Norte 30 Norte 0.1 948.4 0.3 85
2019-11-14 23:00:00 14.9 12 Norte 22 Norte 0.2 948.6 0.8 91
2019-11-14 22:00:00 14.8 9 Noroeste 24 Norte 0 948.5 1.1 90
2019-11-14 21:00:00 15 12 Norte 30 Norte 0 948.1 0.8 82
2019-11-14 20:00:00 15.3 11 Norte 28 Noroeste 0 947.8 0.6 88
2019-11-14 19:00:00 14.9 15 Norte 28 Norte 0.4 947.4 0.4 92
2019-11-14 18:00:00 16.1 6 Norte 22 Nordeste 0.1 947.3 0.3 84
2019-11-14 17:00:00 16.3 11 Norte 32 Norte 0 947.2 0 78
2019-11-14 16:00:00 16.5 13 Norte 28 Nordeste 0 947 -0.8 82
2019-11-14 15:00:00 17.5 15 Norte 30 Nordeste 0 947 -1.6 76
2019-11-14 14:00:00 17.3 11 Norte 28 Norte 0 947.2 -1.7 77
2019-11-14 13:00:00 16 13 Noroeste 32 Noroeste 0 947.8 -1.1 88
2019-11-14 12:00:00 17 15 Norte 30 Norte 0 948.6 0.2 79
2019-11-14 11:00:00 16.7 15 Noroeste 28 Noroeste 0 948.9 1.2 82
2019-11-14 10:00:00 16.1 15 Noroeste 24 Noroeste 0 948.9 1.8 85
2019-11-14 09:00:00 16 10 Noroeste 24 Norte 0 948.4 1.7 90
2019-11-14 08:00:00 15.4 10 Noroeste 22 Noroeste 0.1 947.7 1 91
2019-11-14 07:00:00 14.9 9 Noroeste 28 Norte 0 947.1 0.5 90
2019-11-14 06:00:00 15.6 22 Noroeste 35 Norte 0 946.7 -0.5 85
2019-11-14 05:00:00 15.6 19 Noroeste 48 Noroeste 0 946.7 -0.7 75
2019-11-14 04:00:00 15.5 21 Noroeste 37 Noroeste 0 946.6 -1.3 77
2019-11-14 03:00:00 15.4 19 Noroeste 35 Noroeste 0 947.2 -1.1 81
2019-11-14 02:00:00 15.3 25 Noroeste 37 Noroeste 0 947.4 -1.2 82
2019-11-14 01:00:00 15.4 20 Noroeste 37 Noroeste 0 947.9 -0.6 81
2019-11-14 00:00:00 15.1 22 Noroeste 32 Noroeste 0 948.3 -0.2 81
2019-11-13 23:00:00 14.9 23 Noroeste 39 Noroeste 0 948.6 0.9 81
2019-11-13 22:00:00 15.1 24 Noroeste 46 Noroeste 0 948.5 0.9 84
2019-11-13 21:00:00 15.1 27 Noroeste 41 Noroeste 0 948.5 0.7 83
2019-11-13 20:00:00 15.4 27 Noroeste 46 Noroeste 0 947.7 -0.3 86
2019-11-13 19:00:00 15.4 31 Noroeste 52 Noroeste 0 947.6 -0.6 82
2019-11-13 18:00:00 15.6 33 Noroeste 58 Noroeste 0 947.8 -0.3 81
2019-11-13 17:00:00 16.5 30 Noroeste 46 Noroeste 0 948 -0.5 78
2019-11-13 16:00:00 16.5 25 Noroeste 46 Noroeste 0 948.2 -1.2 81
2019-11-13 15:00:00 16.9 28 Noroeste 46 Noroeste 0 948.1 -2 81
2019-11-13 14:00:00 17 19 Noroeste 35 Norte 0 948.5 -2.3 81
2019-11-13 13:00:00 17.9 18 Noroeste 39 Noroeste 0 949.4 -1.1 76
2019-11-13 12:00:00 17.1 16 Noroeste 32 Norte 0 950.1 0.2 81
2019-11-13 11:00:00 16.9 16 Norte 39 Noroeste 0 950.8 1.5 81
2019-11-13 10:00:00 16.8 14 Noroeste 32 Norte 0 950.5 1.8 80
2019-11-13 09:00:00 16.1 16 Norte 30 Norte 0 949.9 1.7 83
2019-11-13 08:00:00 15.4 16 Noroeste 32 Noroeste 0 949.3 1.3 87
2019-11-13 07:00:00 15.3 14 Noroeste 33 Noroeste 0 948.7 0.8 87
2019-11-13 06:00:00 15.1 23 Noroeste 35 Noroeste 0 948.2 0.4 88
2019-11-13 05:00:00 15.1 17 Oeste 28 Noroeste 0 948 -0.2 90
2019-11-13 04:00:00 15.2 12 Oeste 30 Noroeste 0 947.9 -0.7 83
2019-11-13 03:00:00 15.2 21 Noroeste 30 Oeste 0 947.8 -1.2 79
2019-11-13 02:00:00 14.3 15 Oeste 28 Oeste 0 948.2 -0.8 82
2019-11-13 01:00:00 15.2 12 Oeste 22 Noroeste 0 948.6 -0.6 81
2019-11-13 00:00:00 14.8 15 Noroeste 28 Noroeste 0 949 0.1 82
2019-11-12 23:00:00 15 13 Noroeste 33 Noroeste 0 949 0.4 86
2019-11-12 22:00:00 15 23 Oeste 42 Noroeste 0 949.2 0.7 90
2019-11-12 21:00:00 15.5 30 Noroeste 42 Noroeste 0 948.9 0.4 90
2019-11-12 20:00:00 15.4 27 Oeste 46 Noroeste 0 948.6 0.2 88
2019-11-12 19:00:00 15.8 30 Noroeste 48 Noroeste 0 948.5 -0.1 89
2019-11-12 18:00:00 16.2 31 Noroeste 50 Noroeste 0 948.5 -0.1 91
2019-11-12 17:00:00 16.5 33 Noroeste 48 Noroeste 0.2 948.4 -1 96
2019-11-12 16:00:00 16.7 26 Noroeste 48 Noroeste 0.1 948.6 -1.3 96
2019-11-12 15:00:00 17 29 Noroeste 50 Noroeste 0 948.6 -1.7 93
2019-11-12 14:00:00 17.5 26 Noroeste 48 Noroeste 0.3 949.4 -1.7 87
2019-11-12 13:00:00 16.5 26 Noroeste 45 Noroeste 0.1 949.9 -1 96
2019-11-12 12:00:00 18.1 33 Noroeste 46 Noroeste 0 950.3 -0.1 80
2019-11-12 11:00:00 17.7 31 Noroeste 42 Norte 0.1 951.1 1.1 86
2019-11-12 10:00:00 17 24 Noroeste 39 Noroeste 0.1 950.9 1.3 94
2019-11-12 09:00:00 16.3 29 Noroeste 45 Noroeste 0.1 950.4 1.3 90
2019-11-12 08:00:00 15.9 27 Noroeste 50 Noroeste 0.1 950 0.6 87
2019-11-12 07:00:00 15.8 35 Noroeste 63 Noroeste 0 949.6 0.1 86
2019-11-12 06:00:00 15.8 37 Noroeste 54 Noroeste 0 949.1 -1.1 87
2019-11-12 05:00:00 15.3 39 Noroeste 55 Oeste 0 949.4 -1.3 93
2019-11-12 04:00:00 15.5 38 Noroeste 67 Oeste 0 949.5 -1.7 90
2019-11-12 03:00:00 15.3 36 Noroeste 68 Oeste 0 950.2 -1.1 89
2019-11-12 02:00:00 15.3 35 Oeste 61 Oeste 0 950.7 -0.9 89
2019-11-12 01:00:00 15.5 36 Oeste 67 Oeste 0 951.2 -0.8 93
2019-11-12 00:00:00 15.4 34 Noroeste 61 Oeste 0 951.3 -0.7 92
2019-11-11 23:00:00 15.5 40 Oeste 67 Oeste 0 951.6 -0.3 94
2019-11-11 22:00:00 15.5 35 Noroeste 52 Oeste 0 952 0.7 96
2019-11-11 21:00:00 15.5 35 Noroeste 59 Noroeste 0 952 0.6 93
2019-11-11 20:00:00 15.5 36 Noroeste 63 Noroeste 0 951.9 0.5 94
2019-11-11 19:00:00 15.5 39 Noroeste 59 Noroeste 0 951.3 -0.2 91
2019-11-11 18:00:00 15.6 26 Noroeste 50 Noroeste 0 951.4 -0.3 94
2019-11-11 17:00:00 15.8 31 Noroeste 54 Noroeste 0 951.4 -0.5 90
2019-11-11 16:00:00 16.2 34 Noroeste 55 Noroeste 0 951.5 -1.6 86
2019-11-11 15:00:00 16.9 31 Noroeste 55 Noroeste 0 951.7 -2.1 84
2019-11-11 14:00:00 17.1 36 Noroeste 50 Noroeste 0 951.9 -2.4 82
2019-11-11 13:00:00 17.4 28 Norte 46 Norte 0 953.1 -1.5 78
2019-11-11 12:00:00 18 26 Noroeste 48 Noroeste 0 953.8 -0.8 78
2019-11-11 11:00:00 17.9 27 Noroeste 48 Noroeste 0 954.3 0.3 75
2019-11-11 10:00:00 17.5 20 Noroeste 41 Noroeste 0 954.6 1.2 76
2019-11-11 09:00:00 16 21 Noroeste 46 Noroeste 0 954.6 1.1 84
2019-11-11 08:00:00 15.1 26 Noroeste 46 Noroeste 0 954 0.5 83
2019-11-11 07:00:00 14.7 23 Noroeste 45 Noroeste 0 953.4 -0.4 80
2019-11-11 06:00:00 15.3 16 Noroeste 39 Noroeste 0 953.5 -0.5 82
2019-11-11 05:00:00 15.4 17 Noroeste 39 Noroeste 0 953.5 -1 84
2019-11-11 04:00:00 15.3 15 Noroeste 35 Noroeste 0 953.8 -1 75
2019-11-11 03:00:00 15.5 17 Noroeste 32 Noroeste 0 954 -1.1 86
2019-11-11 02:00:00 15.3 14 Noroeste 37 Noroeste 0 954.5 -1 80
2019-11-11 01:00:00 15.1 15 Noroeste 32 Norte 0 954.8 -0.5 80
2019-11-11 00:00:00 15.2 13 Noroeste 24 Noroeste 0 955.1 0.2 82